createdAt,value
2023-03-04T00:01:21.587Z,14.57
2023-03-04T00:03:48.244Z,8.90
2023-03-04T00:06:14.902Z,5.47
2023-03-04T00:08:41.587Z,14.18
2023-03-04T00:11:08.317Z,14.27
2023-03-04T00:13:35.039Z,6.50
2023-03-04T00:16:01.808Z,9.57
2023-03-04T00:18:28.587Z,12.57
2023-03-04T00:20:55.423Z,9.33
2023-03-04T00:23:23.284Z,12.20
2023-03-04T00:25:50.173Z,11.47
2023-03-04T00:28:16.919Z,9.23
2023-03-04T00:30:43.634Z,8.30
2023-03-04T00:33:10.295Z,10.13
2023-03-04T00:35:36.975Z,5.17
2023-03-04T00:38:03.636Z,12.20
2023-03-04T00:40:30.313Z,6.43
2023-03-04T00:42:56.944Z,10.30
2023-03-04T00:45:23.630Z,8.17
2023-03-04T00:47:50.294Z,6.60
2023-03-04T00:50:17.372Z,10.80
2023-03-04T00:52:44.064Z,16.77
2023-03-04T00:55:10.821Z,14.80
2023-03-04T00:57:37.464Z,8.93
2023-03-04T01:00:05.070Z,14.63
2023-03-04T01:02:31.765Z,16.43
2023-03-04T01:04:58.480Z,11.83
2023-03-04T01:07:25.176Z,9.03
2023-03-04T01:09:51.911Z,11.30
2023-03-04T01:12:18.878Z,10.57
2023-03-04T01:14:45.581Z,11.63
2023-03-04T01:17:12.325Z,11.57
2023-03-04T01:19:39.094Z,13.67
2023-03-04T01:22:05.739Z,11.07
2023-03-04T01:24:32.815Z,7.43
2023-03-04T01:26:59.476Z,18.87
2023-03-04T01:29:26.420Z,11.27
2023-03-04T01:31:53.895Z,12.37
2023-03-04T01:34:20.713Z,14.00
2023-03-04T01:36:47.462Z,10.80
2023-03-04T01:39:14.132Z,14.30
2023-03-04T01:41:41.060Z,11.17
2023-03-04T01:44:10.907Z,12.73
2023-03-04T01:46:38.206Z,5.93
2023-03-04T01:49:07.035Z,12.73
2023-03-04T01:51:33.728Z,12.40
2023-03-04T01:54:00.382Z,14.43
2023-03-04T01:56:36.030Z,12.57
2023-03-04T01:59:24.199Z,10.07
2023-03-04T02:01:54.359Z,9.93
2023-03-04T02:04:24.075Z,9.03
2023-03-04T02:06:52.028Z,11.53
2023-03-04T02:09:19.676Z,9.67
2023-03-04T02:11:47.495Z,21.37
2023-03-04T02:14:15.875Z,6.00
2023-03-04T02:16:42.878Z,5.13
2023-03-04T02:19:48.175Z,5.50
2023-03-04T02:22:15.178Z,10.73
2023-03-04T02:24:47.611Z,8.40
2023-03-04T02:27:14.546Z,12.57
2023-03-04T02:29:41.159Z,10.90
2023-03-04T02:32:11.230Z,10.90
2023-03-04T02:34:40.351Z,8.27
2023-03-04T02:37:07.305Z,10.43
2023-03-04T02:39:39.875Z,13.20
2023-03-04T02:42:07.442Z,8.77
2023-03-04T02:44:37.062Z,8.50
2023-03-04T02:47:07.077Z,4.73
2023-03-04T02:49:35.820Z,8.53
2023-03-04T02:52:08.235Z,11.70
2023-03-04T02:54:35.177Z,17.20
2023-03-04T02:57:05.496Z,15.77
2023-03-04T02:59:32.340Z,5.73
2023-03-04T03:01:59.056Z,11.37
2023-03-04T03:04:26.608Z,14.97
2023-03-04T03:06:53.345Z,10.70
2023-03-04T03:09:20.708Z,12.83
2023-03-04T03:11:47.421Z,16.00
2023-03-04T03:14:14.537Z,16.53
2023-03-04T03:16:41.452Z,11.57
2023-03-04T03:19:08.137Z,10.23
2023-03-04T03:21:34.843Z,10.00
2023-03-04T03:24:01.573Z,15.97
2023-03-04T03:26:28.204Z,9.23
2023-03-04T03:28:54.861Z,19.20
2023-03-04T03:31:21.595Z,15.33
2023-03-04T03:33:48.277Z,11.33
2023-03-04T03:36:14.953Z,12.43
2023-03-04T03:38:41.658Z,13.23
2023-03-04T03:41:08.361Z,14.57
2023-03-04T03:43:35.066Z,19.40
2023-03-04T03:46:01.815Z,18.70
2023-03-04T03:48:28.544Z,15.53
2023-03-04T03:50:55.161Z,25.27
2023-03-04T03:53:21.841Z,14.13
2023-03-04T03:55:48.520Z,24.77
2023-03-04T03:58:15.224Z,20.47
2023-03-04T04:00:42.023Z,18.33
2023-03-04T04:03:14.655Z,19.67
2023-03-04T04:05:41.338Z,20.90
2023-03-04T04:08:07.961Z,15.17
2023-03-04T04:10:34.627Z,16.53
2023-03-04T04:13:01.311Z,25.43
2023-03-04T04:15:28.021Z,25.30
2023-03-04T04:17:54.677Z,18.30
2023-03-04T04:20:21.400Z,21.23
2023-03-04T04:22:48.108Z,24.87
2023-03-04T04:25:14.815Z,23.40
2023-03-04T04:27:41.499Z,26.33
2023-03-04T04:30:08.719Z,35.23
2023-03-04T04:32:35.441Z,21.77
2023-03-04T04:35:02.219Z,23.73
2023-03-04T04:37:29.043Z,19.90
2023-03-04T04:39:55.660Z,23.60
2023-03-04T04:42:22.567Z,23.93
2023-03-04T04:44:49.660Z,21.33
2023-03-04T04:47:16.409Z,25.10
2023-03-04T04:49:43.347Z,26.40
2023-03-04T04:52:10.073Z,18.90
2023-03-04T04:54:36.728Z,24.17
2023-03-04T04:57:06.194Z,27.70
2023-03-04T04:59:32.862Z,23.40
2023-03-04T05:01:59.694Z,23.80
2023-03-04T05:04:26.523Z,16.30
2023-03-04T05:06:53.185Z,20.70
2023-03-04T05:09:20.923Z,18.10
2023-03-04T05:11:47.662Z,16.73
2023-03-04T05:14:14.350Z,25.07
2023-03-04T05:16:40.976Z,20.67
2023-03-04T05:19:07.674Z,18.90
2023-03-04T05:21:34.395Z,17.50
2023-03-04T05:24:01.048Z,17.90
2023-03-04T05:26:27.792Z,17.70
2023-03-04T05:28:54.501Z,17.33
2023-03-04T05:31:21.318Z,16.80
2023-03-04T05:33:48.101Z,16.27
2023-03-04T05:36:14.815Z,18.97
2023-03-04T05:38:41.476Z,10.60
2023-03-04T05:41:08.340Z,14.10
2023-03-04T05:43:36.082Z,21.60
2023-03-04T05:46:04.258Z,17.43
2023-03-04T05:48:31.187Z,23.00
2023-03-04T05:51:00.318Z,13.13
2023-03-04T05:53:28.461Z,24.67
2023-03-04T05:55:55.293Z,25.47
2023-03-04T05:58:22.263Z,14.37
2023-03-04T06:00:49.023Z,12.17
2023-03-04T06:03:20.113Z,17.30
2023-03-04T06:05:47.185Z,15.77
2023-03-04T06:08:14.602Z,13.47
2023-03-04T06:10:41.858Z,11.33
2023-03-04T06:13:09.100Z,16.27
2023-03-04T06:15:35.974Z,24.30
2023-03-04T06:18:02.654Z,17.13
2023-03-04T06:20:29.389Z,15.10
2023-03-04T06:22:56.143Z,14.63
2023-03-04T06:25:23.577Z,17.00
2023-03-04T06:27:50.977Z,24.50
2023-03-04T06:30:18.661Z,22.60
2023-03-04T06:32:46.206Z,21.60
2023-03-04T06:35:14.132Z,27.60
2023-03-04T06:37:40.908Z,22.27
2023-03-04T06:40:08.863Z,25.27
2023-03-04T06:42:36.013Z,26.20
2023-03-04T06:45:03.904Z,21.53
2023-03-04T06:47:30.677Z,20.07
2023-03-04T06:49:57.414Z,21.73
2023-03-04T06:52:24.458Z,16.77
2023-03-04T06:54:51.327Z,30.97
2023-03-04T06:57:18.305Z,28.13
2023-03-04T06:59:45.007Z,28.20
2023-03-04T07:02:12.795Z,25.60
2023-03-04T07:04:41.247Z,23.70
2023-03-04T07:07:08.090Z,28.93
2023-03-04T07:09:35.042Z,23.37
2023-03-04T07:12:01.748Z,22.33
2023-03-04T07:14:28.435Z,19.30
2023-03-04T07:16:55.782Z,21.37
2023-03-04T07:19:22.670Z,24.47
2023-03-04T07:21:49.696Z,35.27
2023-03-04T07:24:16.621Z,28.53
2023-03-04T07:26:43.328Z,21.03
2023-03-04T07:29:10.200Z,24.50
2023-03-04T07:31:37.128Z,22.00
2023-03-04T07:34:10.139Z,24.60
2023-03-04T07:36:37.202Z,20.33
2023-03-04T07:39:05.391Z,18.20
2023-03-04T07:41:36.237Z,22.40
2023-03-04T07:44:04.373Z,27.90
2023-03-04T07:46:31.059Z,20.60
2023-03-04T07:48:57.963Z,21.77
2023-03-04T07:51:27.103Z,26.03
2023-03-04T07:53:57.245Z,23.53
2023-03-04T07:56:26.868Z,24.67
2023-03-04T07:58:53.736Z,19.70
2023-03-04T08:01:26.874Z,25.87
2023-03-04T08:03:53.913Z,30.07
2023-03-04T08:06:21.996Z,19.07
2023-03-04T08:08:50.237Z,26.70
2023-03-04T08:11:21.060Z,23.10
2023-03-04T08:13:48.820Z,26.63
2023-03-04T08:16:18.916Z,26.03
2023-03-04T08:18:48.457Z,36.93
2023-03-04T08:21:19.322Z,24.43
2023-03-04T08:23:47.169Z,28.43
2023-03-04T08:26:31.500Z,22.20
2023-03-04T08:28:58.362Z,19.80
2023-03-04T08:31:25.330Z,17.37
2023-03-04T08:33:52.982Z,23.10
2023-03-04T08:36:20.190Z,21.17
2023-03-04T08:38:47.081Z,28.90
2023-03-04T08:41:14.208Z,19.17
2023-03-04T08:43:41.773Z,23.23
2023-03-04T08:46:08.480Z,24.30
2023-03-04T08:48:35.325Z,20.60
2023-03-04T08:51:06.782Z,18.83
2023-03-04T08:53:33.493Z,33.27
2023-03-04T08:56:00.160Z,16.83
2023-03-04T08:58:26.911Z,21.57
2023-03-04T09:00:53.575Z,25.57
2023-03-04T09:03:20.559Z,21.80
2023-03-04T09:05:49.091Z,23.87
2023-03-04T09:08:16.475Z,21.43
2023-03-04T09:10:43.688Z,20.03
2023-03-04T09:13:11.617Z,27.33
2023-03-04T09:15:43.754Z,20.93
2023-03-04T09:18:10.430Z,24.70
2023-03-04T09:20:37.600Z,21.87
2023-03-04T09:23:04.305Z,23.47
2023-03-04T09:25:31.072Z,24.37
2023-03-04T09:27:57.786Z,28.93
2023-03-04T09:30:24.533Z,27.00
2023-03-04T09:32:51.273Z,25.10
2023-03-04T09:35:18.106Z,16.40
2023-03-04T09:37:46.667Z,23.20
2023-03-04T09:40:20.098Z,17.87
2023-03-04T09:42:50.023Z,18.73
2023-03-04T09:45:20.688Z,28.60
2023-03-04T09:47:50.992Z,19.73
2023-03-04T09:50:19.797Z,30.10
2023-03-04T09:52:58.725Z,26.03
2023-03-04T09:55:39.359Z,27.63
2023-03-04T09:58:37.268Z,15.50
2023-03-04T10:01:14.971Z,17.13
2023-03-04T10:04:03.381Z,13.00
2023-03-04T10:06:31.939Z,19.27
2023-03-04T10:09:04.352Z,30.90
2023-03-04T10:12:01.600Z,16.57
2023-03-04T10:14:34.175Z,29.63
2023-03-04T10:17:09.785Z,22.93
2023-03-04T10:19:44.176Z,22.03
2023-03-04T10:22:26.749Z,18.43
2023-03-04T10:24:58.178Z,23.77
2023-03-04T10:27:26.560Z,27.30
2023-03-04T10:29:53.307Z,20.33
2023-03-04T10:32:21.202Z,21.50
2023-03-04T10:34:48.014Z,15.80
2023-03-04T10:37:14.994Z,13.33
2023-03-04T10:39:44.846Z,21.90
2023-03-04T10:42:14.574Z,20.93
2023-03-04T10:44:59.147Z,24.53
2023-03-04T10:47:28.681Z,18.87
2023-03-04T10:49:57.955Z,24.87
2023-03-04T10:52:36.301Z,16.80
2023-03-04T10:55:06.746Z,18.37
2023-03-04T10:57:40.277Z,15.47
2023-03-04T11:00:29.976Z,13.73
2023-03-04T11:03:18.414Z,15.13
2023-03-04T11:05:45.134Z,17.83
2023-03-04T11:08:23.911Z,23.07
2023-03-04T11:10:52.245Z,16.27
2023-03-04T11:13:26.505Z,24.60
2023-03-04T11:15:53.112Z,24.10
2023-03-04T11:18:26.568Z,17.87
2023-03-04T11:20:55.416Z,16.23
2023-03-04T11:23:45.166Z,17.37
2023-03-04T11:26:18.883Z,17.10
2023-03-04T11:28:56.582Z,22.53
2023-03-04T11:31:36.508Z,22.90
2023-03-04T11:34:28.081Z,23.67
2023-03-04T11:37:20.248Z,19.53
2023-03-04T11:39:51.404Z,14.07
2023-03-04T11:42:21.025Z,21.13
2023-03-04T11:44:47.800Z,15.20
2023-03-04T11:47:40.939Z,14.23
2023-03-04T11:50:16.402Z,20.00
2023-03-04T11:53:01.794Z,23.47
2023-03-04T11:55:56.986Z,18.70
2023-03-04T11:58:45.540Z,17.57
2023-03-04T12:01:27.947Z,23.13
2023-03-04T12:03:57.916Z,11.43
2023-03-04T12:06:43.015Z,19.93
2023-03-04T12:09:36.505Z,15.57
2023-03-04T12:12:41.615Z,13.67
2023-03-04T12:15:22.337Z,11.30
2023-03-04T12:18:01.112Z,20.57
2023-03-04T12:20:27.733Z,16.17
2023-03-04T12:23:02.430Z,11.50
2023-03-04T12:25:35.620Z,13.33
2023-03-04T12:28:52.199Z,20.77
2023-03-04T12:31:53.990Z,19.87
2023-03-04T12:34:42.661Z,13.87
2023-03-04T12:37:35.474Z,17.37
2023-03-04T12:40:47.691Z,11.27
2023-03-04T12:43:47.787Z,16.83
2023-03-04T12:46:19.863Z,11.93
2023-03-04T12:49:24.496Z,14.47
2023-03-04T12:52:15.026Z,14.70
2023-03-04T12:54:46.660Z,13.70
2023-03-04T12:57:21.187Z,13.40
2023-03-04T13:00:19.118Z,10.63
2023-03-04T13:03:11.637Z,15.60
2023-03-04T13:05:57.121Z,21.60
2023-03-04T13:08:27.125Z,10.90
2023-03-04T13:10:53.825Z,14.77
2023-03-04T13:14:23.166Z,10.63
2023-03-04T13:17:01.651Z,15.70
2023-03-04T13:19:47.081Z,13.40
2023-03-04T13:22:38.046Z,9.20
2023-03-04T13:25:29.877Z,10.20
2023-03-04T13:28:05.416Z,8.80
2023-03-04T13:30:32.135Z,4.60
2023-03-04T13:33:21.340Z,9.30
2023-03-04T13:36:02.217Z,8.50
2023-03-04T13:38:32.331Z,11.70
2023-03-04T13:41:15.711Z,8.33
2023-03-04T13:43:52.910Z,14.40
2023-03-04T13:46:19.616Z,12.37
2023-03-04T13:48:52.417Z,9.13
2023-03-04T13:51:30.350Z,9.00
2023-03-04T13:54:00.497Z,13.97
2023-03-04T13:56:31.583Z,9.97
2023-03-04T13:59:31.737Z,7.90
2023-03-04T14:02:01.297Z,12.17
2023-03-04T14:04:56.556Z,10.20
2023-03-04T14:07:26.134Z,9.87
2023-03-04T14:10:05.034Z,10.27
2023-03-04T14:12:34.984Z,6.90
2023-03-04T14:15:24.003Z,15.37
2023-03-04T14:17:55.002Z,25.97
2023-03-04T14:20:29.484Z,15.83
2023-03-04T14:23:01.545Z,7.03
2023-03-04T14:25:31.088Z,9.13
2023-03-04T14:28:13.750Z,15.13
2023-03-04T14:30:43.967Z,14.27
2023-03-04T14:33:31.134Z,12.47
2023-03-04T14:36:01.590Z,6.63
2023-03-04T14:38:31.878Z,9.07
2023-03-04T14:41:10.858Z,10.27
2023-03-04T14:43:53.847Z,13.90
2023-03-04T14:46:22.238Z,9.37
2023-03-04T14:48:54.391Z,9.10
2023-03-04T14:51:33.323Z,13.67
2023-03-04T14:54:00.126Z,11.70
2023-03-04T14:56:29.905Z,12.93
2023-03-04T14:58:58.489Z,16.23
2023-03-04T15:01:36.411Z,12.30
2023-03-04T15:04:12.239Z,8.80
2023-03-04T15:06:48.481Z,11.97
2023-03-04T15:09:26.375Z,14.43
2023-03-04T15:12:06.595Z,11.13
2023-03-04T15:14:47.893Z,15.00
2023-03-04T15:17:42.580Z,11.90
2023-03-04T15:20:09.310Z,8.50
2023-03-04T15:22:45.229Z,10.93
2023-03-04T15:25:16.028Z,11.47
2023-03-04T15:27:44.839Z,12.97
2023-03-04T15:30:21.404Z,12.00
2023-03-04T15:32:48.168Z,9.87
2023-03-04T15:35:17.133Z,14.03
2023-03-04T15:37:45.118Z,11.17
2023-03-04T15:40:18.859Z,11.07
2023-03-04T15:42:45.569Z,7.07
2023-03-04T15:45:23.402Z,12.10
2023-03-04T15:47:50.434Z,6.60
2023-03-04T15:50:22.264Z,6.03
2023-03-04T15:52:51.079Z,27.17
2023-03-04T15:55:22.523Z,31.83
2023-03-04T15:57:54.864Z,34.57
2023-03-04T16:00:21.811Z,26.10
2023-03-04T16:02:48.965Z,15.27
2023-03-04T16:05:16.375Z,21.97
2023-03-04T16:07:48.558Z,14.40
2023-03-04T16:10:29.732Z,40.50
2023-03-04T16:12:57.201Z,23.30
2023-03-04T16:15:29.553Z,10.33
2023-03-04T16:17:57.529Z,13.10
2023-03-04T16:20:28.893Z,10.13
2023-03-04T16:23:00.024Z,24.67
2023-03-04T16:25:28.669Z,29.17
2023-03-04T16:28:04.016Z,25.13
2023-03-04T16:30:31.469Z,20.57
2023-03-04T16:32:58.173Z,18.20
2023-03-04T16:35:29.167Z,9.77
2023-03-04T16:37:56.929Z,18.03
2023-03-04T16:40:28.691Z,7.63
2023-03-04T16:42:55.564Z,14.13
2023-03-04T16:45:25.444Z,5.60
2023-03-04T16:47:53.199Z,5.17
2023-03-04T16:50:26.939Z,9.87
2023-03-04T16:52:55.328Z,8.40
2023-03-04T16:55:25.592Z,9.27
2023-03-04T16:57:53.911Z,9.53
2023-03-04T17:00:22.983Z,14.47
2023-03-04T17:03:01.105Z,23.80
2023-03-04T17:05:32.219Z,9.90
2023-03-04T17:07:58.913Z,6.70
2023-03-04T17:10:26.131Z,8.30
2023-03-04T17:12:52.764Z,19.67
2023-03-04T17:15:19.682Z,31.67
2023-03-04T17:17:47.088Z,9.13
2023-03-04T17:20:16.777Z,8.07
2023-03-04T17:22:43.487Z,7.07
2023-03-04T17:25:10.930Z,9.47
2023-03-04T17:27:37.700Z,9.23
2023-03-04T17:30:06.861Z,10.10
2023-03-04T17:32:33.782Z,8.90
2023-03-04T17:35:01.000Z,4.73
2023-03-04T17:37:27.682Z,7.50
2023-03-04T17:39:54.404Z,9.93
2023-03-04T17:42:21.170Z,8.60
2023-03-04T17:44:47.983Z,13.30
2023-03-04T17:47:15.972Z,9.73
2023-03-04T17:49:43.004Z,11.37
2023-03-04T17:52:11.261Z,8.17
2023-03-04T17:54:38.094Z,13.97
2023-03-04T17:57:05.390Z,11.03
2023-03-04T17:59:32.427Z,9.60
2023-03-04T18:01:59.083Z,9.73
2023-03-04T18:04:25.810Z,12.40
2023-03-04T18:06:52.542Z,16.60
2023-03-04T18:09:19.245Z,14.53
2023-03-04T18:11:46.032Z,10.73
2023-03-04T18:14:12.904Z,9.63
2023-03-04T18:16:40.497Z,13.33
2023-03-04T18:19:09.436Z,14.80
2023-03-04T18:21:36.177Z,17.50
2023-03-04T18:24:03.401Z,10.30
2023-03-04T18:26:30.869Z,14.10
2023-03-04T18:28:57.935Z,13.37
2023-03-04T18:31:31.022Z,10.37
2023-03-04T18:34:00.448Z,10.13
2023-03-04T18:36:27.264Z,9.90
2023-03-04T18:38:55.223Z,11.73
2023-03-04T18:41:21.892Z,15.13
2023-03-04T18:43:48.753Z,12.13
2023-03-04T18:46:27.642Z,12.03
2023-03-04T18:49:00.118Z,11.67
2023-03-04T18:51:27.036Z,11.90
2023-03-04T18:53:53.667Z,15.30
2023-03-04T18:56:28.102Z,12.40
2023-03-04T18:58:54.972Z,17.33
2023-03-04T19:01:25.098Z,11.93
2023-03-04T19:03:54.360Z,9.53
2023-03-04T19:06:21.924Z,16.73
2023-03-04T19:08:53.364Z,8.67
2023-03-04T19:11:20.140Z,9.23
2023-03-04T19:13:47.596Z,13.20
2023-03-04T19:16:15.605Z,7.13
2023-03-04T19:18:42.474Z,7.57
2023-03-04T19:21:09.494Z,11.90
2023-03-04T19:23:36.156Z,12.33
2023-03-04T19:26:05.380Z,12.43
2023-03-04T19:28:32.286Z,10.77
2023-03-04T19:30:59.412Z,10.30
2023-03-04T19:33:28.916Z,9.00
2023-03-04T19:35:55.695Z,12.17
2023-03-04T19:38:22.498Z,11.27
2023-03-04T19:40:49.428Z,8.27
2023-03-04T19:43:16.261Z,9.13
2023-03-04T19:45:43.304Z,3.80
2023-03-04T19:48:10.039Z,10.40
2023-03-04T19:50:36.988Z,6.30
2023-03-04T19:53:03.941Z,6.57
2023-03-04T19:55:30.984Z,5.07
2023-03-04T19:57:58.179Z,12.93
2023-03-04T20:00:26.420Z,8.83
2023-03-04T20:02:55.742Z,11.43
2023-03-04T20:05:22.594Z,5.60
2023-03-04T20:07:49.522Z,11.27
2023-03-04T20:10:16.539Z,15.10
2023-03-04T20:12:43.489Z,9.37
2023-03-04T20:15:10.711Z,6.07
2023-03-04T20:17:37.508Z,6.00
2023-03-04T20:20:04.788Z,6.33
2023-03-04T20:22:31.638Z,4.27
2023-03-04T20:24:58.886Z,8.57
2023-03-04T20:27:25.748Z,7.00
2023-03-04T20:29:53.370Z,6.43
2023-03-04T20:32:20.125Z,5.57
2023-03-04T20:34:48.534Z,12.50
2023-03-04T20:37:15.260Z,12.27
2023-03-04T20:39:42.151Z,4.30
2023-03-04T20:42:09.402Z,6.87
2023-03-04T20:44:36.263Z,8.50
2023-03-04T20:47:03.285Z,9.80
2023-03-04T20:49:30.287Z,10.13
2023-03-04T20:52:03.031Z,8.43
2023-03-04T20:54:30.527Z,7.90
2023-03-04T20:56:57.236Z,7.90
2023-03-04T20:59:24.704Z,12.80
2023-03-04T21:01:52.182Z,7.13
2023-03-04T21:04:20.666Z,13.47
2023-03-04T21:06:48.389Z,11.47
2023-03-04T21:09:17.990Z,8.57
2023-03-04T21:11:45.351Z,4.80
2023-03-04T21:14:27.191Z,6.93
2023-03-04T21:16:57.168Z,9.10
2023-03-04T21:19:36.887Z,10.83
2023-03-04T21:22:04.656Z,17.40
2023-03-04T21:24:34.404Z,13.07
2023-03-04T21:27:02.148Z,8.57
2023-03-04T21:29:29.152Z,8.77
2023-03-04T21:32:23.177Z,9.40
2023-03-04T21:34:52.613Z,6.30
2023-03-04T21:37:23.927Z,6.23
2023-03-04T21:39:51.157Z,15.37
2023-03-04T21:42:18.289Z,16.57
2023-03-04T21:44:49.591Z,12.30
2023-03-04T21:47:17.859Z,15.03
2023-03-04T21:49:44.693Z,13.07
2023-03-04T21:52:11.499Z,11.17
2023-03-04T21:54:38.139Z,6.70
2023-03-04T21:57:04.854Z,12.60
2023-03-04T21:59:31.817Z,4.87
2023-03-04T22:01:58.600Z,8.27
2023-03-04T22:04:25.340Z,12.57
2023-03-04T22:06:53.360Z,11.93
2023-03-04T22:09:20.294Z,5.83
2023-03-04T22:11:47.207Z,9.53
2023-03-04T22:14:13.906Z,6.17
2023-03-04T22:16:56.716Z,4.83
2023-03-04T22:19:24.718Z,4.03
2023-03-04T22:21:52.689Z,7.50
2023-03-04T22:24:20.231Z,6.60
2023-03-04T22:26:47.000Z,6.97
2023-03-04T22:29:13.687Z,5.67
2023-03-04T22:31:40.599Z,9.83
2023-03-04T22:34:13.264Z,9.53
2023-03-04T22:36:42.965Z,7.27
2023-03-04T22:39:12.459Z,8.50
2023-03-04T22:41:39.214Z,6.80
2023-03-04T22:44:06.954Z,6.53
2023-03-04T22:46:35.900Z,7.33
2023-03-04T22:49:04.994Z,11.03
2023-03-04T22:51:32.506Z,11.70
2023-03-04T22:53:59.199Z,13.33
2023-03-04T22:56:25.867Z,11.23
2023-03-04T22:58:52.595Z,15.07
2023-03-04T23:01:20.274Z,11.73
2023-03-04T23:03:49.379Z,6.67
2023-03-04T23:06:17.934Z,11.23
2023-03-04T23:08:46.853Z,5.83
2023-03-04T23:11:26.428Z,13.50
2023-03-04T23:13:54.152Z,10.23
2023-03-04T23:16:21.766Z,11.00
2023-03-04T23:18:49.182Z,12.60
2023-03-04T23:21:22.351Z,6.37
2023-03-04T23:23:50.023Z,20.00
2023-03-04T23:26:20.055Z,9.43
2023-03-04T23:28:47.259Z,9.03
2023-03-04T23:31:16.941Z,9.03
2023-03-04T23:33:45.588Z,4.57
2023-03-04T23:36:15.590Z,8.47
2023-03-04T23:38:47.815Z,11.30
2023-03-04T23:41:19.916Z,9.37
2023-03-04T23:43:47.858Z,12.13
2023-03-04T23:46:14.888Z,10.33
2023-03-04T23:48:45.534Z,10.77
2023-03-04T23:51:14.536Z,10.07
2023-03-04T23:53:41.788Z,14.67
2023-03-04T23:56:22.339Z,10.30
2023-03-04T23:58:49.676Z,17.27
